createdAt,value
2018-02-03T00:01:12.597Z,8.50
2018-02-03T00:03:40.870Z,7.80
2018-02-03T00:06:09.133Z,8.25
2018-02-03T00:08:36.647Z,8.80
2018-02-03T00:11:04.127Z,8.17
2018-02-03T00:13:31.648Z,9.20
2018-02-03T00:15:59.188Z,9.20
2018-02-03T00:18:27.448Z,8.80
2018-02-03T00:20:55.716Z,8.77
2018-02-03T00:23:23.248Z,9.03
2018-02-03T00:25:50.759Z,8.80
2018-02-03T00:28:19.014Z,8.67
2018-02-03T00:30:46.592Z,9.20
2018-02-03T00:33:15.603Z,9.33
2018-02-03T00:35:43.112Z,9.23
2018-02-03T00:38:10.601Z,9.47
2018-02-03T00:40:38.900Z,8.97
2018-02-03T00:43:06.440Z,9.20
2018-02-03T00:45:34.732Z,9.33
2018-02-03T00:48:02.225Z,8.90
2018-02-03T00:50:29.734Z,9.33
2018-02-03T00:52:57.989Z,9.57
2018-02-03T00:55:25.580Z,9.60
2018-02-03T00:57:53.076Z,9.83
2018-02-03T01:00:20.584Z,10.43
2018-02-03T01:02:48.844Z,9.70
2018-02-03T01:05:16.314Z,9.90
2018-02-03T01:07:44.592Z,10.43
2018-02-03T01:10:12.844Z,10.97
2018-02-03T01:12:41.860Z,10.63
2018-02-03T01:15:09.436Z,10.17
2018-02-03T01:17:37.686Z,10.63
2018-02-03T01:20:05.191Z,10.27
2018-02-03T01:22:32.663Z,9.97
2018-02-03T01:25:00.184Z,10.60
2018-02-03T01:27:28.439Z,10.57
2018-02-03T01:29:56.016Z,10.23
2018-02-03T01:32:24.270Z,10.50
2018-02-03T01:34:51.852Z,10.97
2018-02-03T01:37:20.133Z,10.90
2018-02-03T01:39:48.383Z,11.47
2018-02-03T01:42:15.963Z,10.53
2018-02-03T01:44:44.233Z,10.73
2018-02-03T01:47:12.499Z,11.40
2018-02-03T01:49:40.079Z,10.63
2018-02-03T01:52:08.328Z,11.93
2018-02-03T01:54:36.643Z,11.20
2018-02-03T01:57:04.192Z,10.43
2018-02-03T01:59:32.466Z,10.90
2018-02-03T02:02:00.727Z,11.17
2018-02-03T02:04:28.217Z,11.67
2018-02-03T02:06:55.768Z,11.53
2018-02-03T02:09:24.023Z,11.37
2018-02-03T02:11:52.325Z,11.37
2018-02-03T02:14:19.881Z,12.13
2018-02-03T02:16:47.370Z,11.90
2018-02-03T02:19:14.884Z,11.10
2018-02-03T02:21:43.166Z,11.60
2018-02-03T02:24:11.443Z,11.73
2018-02-03T02:26:39.692Z,11.00
2018-02-03T02:29:07.420Z,12.60
2018-02-03T02:31:34.931Z,12.07
2018-02-03T02:34:03.184Z,11.87
2018-02-03T02:36:30.693Z,11.77
2018-02-03T02:38:58.189Z,12.37
2018-02-03T02:41:25.795Z,12.23
2018-02-03T02:43:54.059Z,12.37
2018-02-03T02:46:21.551Z,11.87
2018-02-03T02:48:49.051Z,11.35
2018-02-03T02:51:16.543Z,11.87
2018-02-03T02:53:44.819Z,12.40
2018-02-03T02:56:13.099Z,12.37
2018-02-03T02:58:41.378Z,11.63
2018-02-03T03:01:09.649Z,11.37
2018-02-03T03:03:37.998Z,12.37
2018-02-03T03:06:05.496Z,12.03
2018-02-03T03:08:32.999Z,12.23
2018-02-03T03:11:00.508Z,12.00
2018-02-03T03:13:28.751Z,12.70
2018-02-03T03:15:57.784Z,11.43
2018-02-03T03:18:25.339Z,12.13
2018-02-03T03:20:53.617Z,11.53
2018-02-03T03:23:21.897Z,11.83
2018-02-03T03:25:49.380Z,11.13
2018-02-03T03:28:16.920Z,12.40
2018-02-03T03:30:44.407Z,11.77
2018-02-03T03:33:11.916Z,11.80
2018-02-03T03:35:40.189Z,12.20
2018-02-03T03:38:07.674Z,13.33
2018-02-03T03:40:35.171Z,12.80
2018-02-03T03:43:02.668Z,12.60
2018-02-03T03:45:30.954Z,12.00
2018-02-03T03:47:59.223Z,12.93
2018-02-03T03:50:27.515Z,13.03
2018-02-03T03:52:56.216Z,12.53
2018-02-03T03:55:23.758Z,12.80
2018-02-03T03:57:52.035Z,13.00
2018-02-03T04:00:19.606Z,12.20
2018-02-03T04:02:47.153Z,11.83
2018-02-03T04:05:15.428Z,13.37
2018-02-03T04:07:42.944Z,13.17
2018-02-03T04:10:10.450Z,13.17
2018-02-03T04:12:37.952Z,13.53
2018-02-03T04:15:05.444Z,13.43
2018-02-03T04:17:33.031Z,13.40
2018-02-03T04:20:00.526Z,13.67
2018-02-03T04:22:28.015Z,13.77
2018-02-03T04:24:55.527Z,14.60
2018-02-03T04:27:23.014Z,13.73
2018-02-03T04:29:50.498Z,14.70
2018-02-03T04:32:18.790Z,13.97
2018-02-03T04:34:47.068Z,14.87
2018-02-03T04:37:14.558Z,15.10
2018-02-03T04:39:42.046Z,14.17
2018-02-03T04:42:09.548Z,15.47
2018-02-03T04:44:37.034Z,14.40
2018-02-03T04:47:04.588Z,15.10
2018-02-03T04:49:32.094Z,15.40
2018-02-03T04:52:00.387Z,15.13
2018-02-03T04:54:28.648Z,14.80
2018-02-03T04:56:57.648Z,15.43
2018-02-03T04:59:25.939Z,14.97
2018-02-03T05:01:53.441Z,16.30
2018-02-03T05:04:20.914Z,15.80
2018-02-03T05:06:48.414Z,16.48
2018-02-03T05:09:16.666Z,15.93
2018-02-03T05:11:44.948Z,16.27
2018-02-03T05:14:13.244Z,16.37
2018-02-03T05:16:40.787Z,16.90
2018-02-03T05:19:08.273Z,16.00
2018-02-03T05:21:35.775Z,16.43
2018-02-03T05:24:03.374Z,16.15
2018-02-03T05:26:30.880Z,16.42
2018-02-03T05:28:58.395Z,16.75
2018-02-03T05:31:26.666Z,16.52
2018-02-03T05:33:54.927Z,15.77
2018-02-03T05:36:23.232Z,17.55
2018-02-03T05:38:50.722Z,15.35
2018-02-03T05:41:19.057Z,16.48
2018-02-03T05:43:47.326Z,16.08
2018-02-03T05:46:15.596Z,15.93
2018-02-03T05:48:43.111Z,15.93
2018-02-03T05:51:10.612Z,16.70
2018-02-03T05:53:39.006Z,15.82
2018-02-03T05:56:07.278Z,15.75
2018-02-03T05:58:35.664Z,15.65
2018-02-03T06:01:03.957Z,15.55
2018-02-03T06:03:31.622Z,15.43
2018-02-03T06:05:59.127Z,16.05
2018-02-03T06:08:26.719Z,15.65
2018-02-03T06:10:55.018Z,14.85
2018-02-03T06:13:22.523Z,14.38
2018-02-03T06:15:50.033Z,14.73
2018-02-03T06:18:17.587Z,14.75
2018-02-03T06:20:45.137Z,13.98
2018-02-03T06:23:13.427Z,14.55
2018-02-03T06:25:40.911Z,13.90
2018-02-03T06:28:08.413Z,13.23
2018-02-03T06:30:36.668Z,14.03
2018-02-03T06:33:04.263Z,13.40
2018-02-03T06:35:32.528Z,13.52
2018-02-03T06:38:00.781Z,12.95
2018-02-03T06:40:29.039Z,13.45
2018-02-03T06:42:56.546Z,14.63
2018-02-03T06:45:24.807Z,12.75
2018-02-03T06:47:53.109Z,13.80
2018-02-03T06:50:20.627Z,13.15
2018-02-03T06:52:48.125Z,12.95
2018-02-03T06:55:15.612Z,13.45
2018-02-03T06:57:43.133Z,13.10
2018-02-03T07:00:11.419Z,13.13
2018-02-03T07:02:38.975Z,14.17
2018-02-03T07:05:06.464Z,14.05
2018-02-03T07:07:33.976Z,13.30
2018-02-03T07:10:01.465Z,13.47
2018-02-03T07:12:28.955Z,15.32
2018-02-03T07:14:56.453Z,14.10
2018-02-03T07:17:24.722Z,13.43
2018-02-03T07:19:52.302Z,14.00
2018-02-03T07:22:19.803Z,13.23
2018-02-03T07:24:48.651Z,13.53
2018-02-03T07:27:16.899Z,14.43
2018-02-03T07:29:46.077Z,13.43
2018-02-03T07:32:13.588Z,14.75
2018-02-03T07:34:42.800Z,13.60
2018-02-03T07:37:10.344Z,13.32
2018-02-03T07:39:37.887Z,14.33
2018-02-03T07:42:06.875Z,13.97
2018-02-03T07:44:35.175Z,13.38
2018-02-03T07:47:03.986Z,14.07
2018-02-03T07:49:31.495Z,12.90
2018-02-03T07:51:59.763Z,13.50
2018-02-03T07:54:29.034Z,14.55
2018-02-03T07:56:56.556Z,13.73
2018-02-03T07:59:24.835Z,13.02
2018-02-03T08:01:52.392Z,13.53
2018-02-03T08:04:19.908Z,14.80
2018-02-03T08:06:47.396Z,14.27
2018-02-03T08:09:15.683Z,14.85
2018-02-03T08:11:45.386Z,13.50
2018-02-03T08:14:18.623Z,13.15
2018-02-03T08:16:46.111Z,13.43
2018-02-03T08:19:15.383Z,13.80
2018-02-03T08:21:43.187Z,12.55
2018-02-03T08:24:11.488Z,13.43
2018-02-03T08:26:39.743Z,12.23
2018-02-03T08:29:07.235Z,11.93
2018-02-03T08:31:38.572Z,12.47
2018-02-03T08:34:06.150Z,12.63
2018-02-03T08:36:33.700Z,12.90
2018-02-03T08:39:01.252Z,11.33
2018-02-03T08:41:28.805Z,12.07
2018-02-03T08:43:59.753Z,12.70
2018-02-03T08:46:29.274Z,12.73
2018-02-03T08:49:01.451Z,12.13
2018-02-03T08:51:29.078Z,12.25
2018-02-03T08:53:57.363Z,12.07
2018-02-03T08:56:27.620Z,12.27
2018-02-03T08:58:55.143Z,12.17
2018-02-03T09:01:23.412Z,12.57
2018-02-03T09:03:51.686Z,12.27
2018-02-03T09:06:19.200Z,11.40
2018-02-03T09:08:46.725Z,11.57
2018-02-03T09:11:14.266Z,12.07
2018-02-03T09:13:42.540Z,10.87
2018-02-03T09:16:10.797Z,12.50
2018-02-03T09:18:38.422Z,11.97
2018-02-03T09:21:05.923Z,12.52
2018-02-03T09:23:33.411Z,12.13
2018-02-03T09:26:00.923Z,11.93
2018-02-03T09:28:28.410Z,13.20
2018-02-03T09:30:56.680Z,11.30
2018-02-03T09:33:24.940Z,11.70
2018-02-03T09:35:52.424Z,10.97
2018-02-03T09:38:19.946Z,11.20
2018-02-03T09:40:47.435Z,11.43
2018-02-03T09:43:15.700Z,10.80
2018-02-03T09:45:43.182Z,10.77
2018-02-03T09:48:10.761Z,10.73
2018-02-03T09:50:38.332Z,11.37
2018-02-03T09:53:05.819Z,10.63
2018-02-03T09:55:33.336Z,10.13
2018-02-03T09:58:00.871Z,12.47
2018-02-03T10:00:29.151Z,17.37
2018-02-03T10:02:57.433Z,13.13
2018-02-03T10:05:24.995Z,10.57
2018-02-03T10:07:52.489Z,11.53
2018-02-03T10:10:19.980Z,10.43
2018-02-03T10:12:49.440Z,10.47
2018-02-03T10:15:16.928Z,10.30
2018-02-03T10:17:44.474Z,10.40
2018-02-03T10:20:12.091Z,10.97
2018-02-03T10:22:40.424Z,10.30
2018-02-03T10:25:07.986Z,10.00
2018-02-03T10:27:35.484Z,10.40
2018-02-03T10:30:03.818Z,10.10
2018-02-03T10:32:31.817Z,14.47
2018-02-03T10:35:00.077Z,11.47
2018-02-03T10:37:27.578Z,9.30
2018-02-03T10:39:55.104Z,9.83
2018-02-03T10:42:22.602Z,9.97
2018-02-03T10:44:50.095Z,11.30
2018-02-03T10:47:17.695Z,11.10
2018-02-03T10:49:45.964Z,10.23
2018-02-03T10:52:14.268Z,10.63
2018-02-03T10:54:41.814Z,11.60
2018-02-03T10:57:11.899Z,10.77
2018-02-03T10:59:39.408Z,10.37
2018-02-03T11:02:06.990Z,10.57
2018-02-03T11:04:34.481Z,10.20
2018-02-03T11:07:01.984Z,9.77
2018-02-03T11:09:29.530Z,9.57
2018-02-03T11:11:57.073Z,9.67
2018-02-03T11:14:25.521Z,9.20
2018-02-03T11:16:53.092Z,9.43
2018-02-03T11:19:20.689Z,8.63
2018-02-03T11:21:48.980Z,9.20
2018-02-03T11:24:16.537Z,8.87
2018-02-03T11:26:44.016Z,8.77
2018-02-03T11:29:11.536Z,8.47
2018-02-03T11:31:39.792Z,9.17
2018-02-03T11:34:07.315Z,9.00
2018-02-03T11:36:34.829Z,9.37
2018-02-03T11:39:03.078Z,8.87
2018-02-03T11:41:30.569Z,8.90
2018-02-03T11:44:04.924Z,9.17
2018-02-03T11:46:32.498Z,8.23
2018-02-03T11:48:59.987Z,7.90
2018-02-03T11:51:29.837Z,7.13
2018-02-03T11:53:57.347Z,8.37
2018-02-03T11:56:24.860Z,7.80
2018-02-03T11:58:52.394Z,8.40
2018-02-03T12:01:20.639Z,7.50
2018-02-03T12:03:48.908Z,7.40
2018-02-03T12:06:17.968Z,6.80
2018-02-03T12:08:45.457Z,7.27
2018-02-03T12:11:12.956Z,8.80
2018-02-03T12:13:41.235Z,7.17
2018-02-03T12:16:09.864Z,7.70
2018-02-03T12:18:37.361Z,7.50
2018-02-03T12:21:05.686Z,7.30
2018-02-03T12:23:33.211Z,7.70
2018-02-03T12:26:01.600Z,7.80
2018-02-03T12:28:29.898Z,6.97
2018-02-03T12:30:57.391Z,7.80
2018-02-03T12:33:24.883Z,7.17
2018-02-03T12:35:53.196Z,7.60
2018-02-03T12:38:20.964Z,7.13
2018-02-03T12:40:48.486Z,7.17
2018-02-03T12:43:16.736Z,6.80
2018-02-03T12:45:44.397Z,6.77
2018-02-03T12:48:11.856Z,7.80
2018-02-03T12:50:39.366Z,8.87
2018-02-03T12:53:07.872Z,6.63
2018-02-03T12:55:36.252Z,5.80
2018-02-03T12:58:03.751Z,5.97
2018-02-03T13:00:31.997Z,6.00
2018-02-03T13:02:59.603Z,4.67
2018-02-03T13:05:27.075Z,5.23
2018-02-03T13:07:55.151Z,4.60
2018-02-03T13:10:22.642Z,4.77
2018-02-03T13:12:50.120Z,4.90
2018-02-03T13:15:17.620Z,3.93
2018-02-03T13:17:45.185Z,4.37
2018-02-03T13:20:12.711Z,3.27
2018-02-03T13:22:40.200Z,3.70
2018-02-03T13:25:07.797Z,2.93
2018-02-03T13:27:35.304Z,3.10
2018-02-03T13:30:02.780Z,2.73
2018-02-03T13:32:30.278Z,2.20
2018-02-03T13:34:57.802Z,2.73
2018-02-03T13:37:25.310Z,5.63
2018-02-03T13:39:52.841Z,3.67
2018-02-03T13:42:20.342Z,2.80
2018-02-03T13:44:48.597Z,2.70
2018-02-03T13:47:16.083Z,2.70
2018-02-03T13:49:44.339Z,2.70
2018-02-03T13:52:11.822Z,2.70
2018-02-03T13:54:39.332Z,2.93
2018-02-03T13:57:06.813Z,2.50
2018-02-03T13:59:34.314Z,4.63
2018-02-03T14:02:01.852Z,2.90
2018-02-03T14:04:29.338Z,2.90
2018-02-03T14:06:56.845Z,2.77
2018-02-03T14:09:24.330Z,2.77
2018-02-03T14:11:51.827Z,2.67
2018-02-03T14:14:19.349Z,2.70
2018-02-03T14:16:46.838Z,2.63
2018-02-03T14:19:14.350Z,2.57
2018-02-03T14:21:42.627Z,3.50
2018-02-03T14:24:16.581Z,3.30
2018-02-03T14:26:44.109Z,3.80
2018-02-03T14:29:11.598Z,3.40
2018-02-03T14:31:39.446Z,4.00
2018-02-03T14:34:06.938Z,4.20
2018-02-03T14:36:34.547Z,4.30
2018-02-03T14:39:03.166Z,4.03
2018-02-03T14:41:30.648Z,4.33
2018-02-03T14:43:58.141Z,4.63
2018-02-03T14:46:26.399Z,4.40
2018-02-03T14:48:53.904Z,4.53
2018-02-03T14:51:24.196Z,4.70
2018-02-03T14:53:52.712Z,4.77
2018-02-03T14:56:20.209Z,3.97
2018-02-03T14:58:47.703Z,4.40
2018-02-03T15:01:15.964Z,4.10
2018-02-03T15:03:43.540Z,4.50
2018-02-03T15:06:11.821Z,4.63
2018-02-03T15:08:40.075Z,4.93
2018-02-03T15:11:07.654Z,4.60
2018-02-03T15:13:35.928Z,5.27
2018-02-03T15:16:04.200Z,4.60
2018-02-03T15:18:32.449Z,4.47
2018-02-03T15:21:00.768Z,4.50
2018-02-03T15:23:28.257Z,4.53
2018-02-03T15:25:55.773Z,5.03
2018-02-03T15:28:24.015Z,4.87
2018-02-03T15:30:51.523Z,5.03
2018-02-03T15:33:19.009Z,5.20
2018-02-03T15:35:46.499Z,5.33
2018-02-03T15:38:14.012Z,6.07
2018-02-03T15:40:41.590Z,5.60
2018-02-03T15:43:09.068Z,5.80
2018-02-03T15:45:36.555Z,6.23
2018-02-03T15:48:04.819Z,5.72
2018-02-03T15:50:33.229Z,6.23
2018-02-03T15:53:00.760Z,6.10
2018-02-03T15:55:29.015Z,6.72
2018-02-03T15:57:56.612Z,7.20
2018-02-03T16:00:24.889Z,6.18
2018-02-03T16:02:53.160Z,6.67
2018-02-03T16:05:20.719Z,7.20
2018-02-03T16:07:48.967Z,7.30
2018-02-03T16:10:16.461Z,7.28
2018-02-03T16:12:44.711Z,7.10
2018-02-03T16:15:12.301Z,7.93
2018-02-03T16:17:39.865Z,7.97
2018-02-03T16:20:07.357Z,8.33
2018-02-03T16:22:34.858Z,8.30
2018-02-03T16:25:03.115Z,7.82
2018-02-03T16:27:30.631Z,7.72
2018-02-03T16:29:58.131Z,7.40
2018-02-03T16:32:27.317Z,8.27
2018-02-03T16:34:54.827Z,7.72
2018-02-03T16:37:23.067Z,7.60
2018-02-03T16:39:50.567Z,7.70
2018-02-03T16:42:18.711Z,7.87
2018-02-03T16:44:46.284Z,8.67
2018-02-03T16:47:14.544Z,7.60
2018-02-03T16:49:42.038Z,7.80
2018-02-03T16:52:09.544Z,7.85
2018-02-03T16:54:37.143Z,7.50
2018-02-03T16:57:06.194Z,7.35
2018-02-03T16:59:33.795Z,7.90
2018-02-03T17:02:02.130Z,7.57
2018-02-03T17:04:29.656Z,8.00
2018-02-03T17:06:57.186Z,8.32
2018-02-03T17:09:25.391Z,8.00
2018-02-03T17:11:53.041Z,8.70
2018-02-03T17:14:21.387Z,8.43
2018-02-03T17:16:49.707Z,9.37
2018-02-03T17:19:22.721Z,8.73
2018-02-03T17:22:00.597Z,9.35
2018-02-03T17:24:28.543Z,9.00
2018-02-03T17:26:56.915Z,9.60
2018-02-03T17:29:25.176Z,9.20
2018-02-03T17:31:52.752Z,14.32
2018-02-03T17:34:21.020Z,9.77
2018-02-03T17:36:54.991Z,9.25
2018-02-03T17:39:22.699Z,10.55
2018-02-03T17:41:51.214Z,8.90
2018-02-03T17:44:18.887Z,9.73
2018-02-03T17:46:52.116Z,21.10
2018-02-03T17:49:19.707Z,11.05
2018-02-03T17:51:47.261Z,9.20
2018-02-03T17:54:15.513Z,8.60
2018-02-03T17:59:50.296Z,9.02
2018-02-03T18:02:17.812Z,9.70
2018-02-03T18:04:45.339Z,10.23
2018-02-03T18:07:13.013Z,9.80
2018-02-03T18:09:40.534Z,10.23
2018-02-03T18:12:08.028Z,9.57
2018-02-03T18:14:35.548Z,11.20
2018-02-03T18:17:03.055Z,10.38
2018-02-03T18:19:30.560Z,10.25
2018-02-03T18:21:58.831Z,10.32
2018-02-03T18:24:28.139Z,11.30
2018-02-03T18:26:56.509Z,13.73
2018-02-03T18:29:24.809Z,11.75
2018-02-03T18:31:52.361Z,11.15
2018-02-03T18:34:19.997Z,10.60
2018-02-03T18:36:47.472Z,11.00
2018-02-03T18:39:15.875Z,11.07
2018-02-03T18:41:43.372Z,11.05
2018-02-03T18:44:10.854Z,11.32
2018-02-03T18:46:39.698Z,11.20
2018-02-03T18:49:07.238Z,11.00
2018-02-03T18:51:34.763Z,10.68
2018-02-03T18:54:02.382Z,11.63
2018-02-03T18:56:29.988Z,13.45
2018-02-03T18:58:58.680Z,12.25
2018-02-03T19:01:27.594Z,11.55
2018-02-03T19:03:55.173Z,12.57
2018-02-03T19:06:22.695Z,11.93
2018-02-03T19:08:50.972Z,11.30
2018-02-03T19:11:19.273Z,11.40
2018-02-03T19:13:46.777Z,11.77
2018-02-03T19:16:14.920Z,12.20
2018-02-03T19:18:42.852Z,11.80
2018-02-03T19:21:10.411Z,11.98
2018-02-03T19:23:38.864Z,11.30
2018-02-03T19:26:06.450Z,12.27
2018-02-03T19:28:34.076Z,11.05
2018-02-03T19:31:01.643Z,10.80
2018-02-03T19:33:29.947Z,11.30
2018-02-03T19:35:58.231Z,17.12
2018-02-03T19:38:26.534Z,17.37
2018-02-03T19:40:54.096Z,12.15
2018-02-03T19:43:24.248Z,11.85
2018-02-03T19:45:51.785Z,11.40
2018-02-03T19:48:19.305Z,11.50
2018-02-03T19:50:46.860Z,11.60
2018-02-03T19:53:14.403Z,11.20
2018-02-03T19:55:42.670Z,11.55
2018-02-03T19:58:10.228Z,12.37
2018-02-03T20:00:37.740Z,11.40
2018-02-03T20:03:05.239Z,11.70
2018-02-03T20:05:33.515Z,12.25
2018-02-03T20:08:01.083Z,13.02
2018-02-03T20:10:28.673Z,13.27
2018-02-03T20:12:56.264Z,12.80
2018-02-03T20:15:23.761Z,12.70
2018-02-03T20:17:52.161Z,12.82
2018-02-03T20:20:20.444Z,12.55
2018-02-03T20:22:48.699Z,13.60
2018-02-03T20:25:16.212Z,13.70
2018-02-03T20:27:43.741Z,14.25
2018-02-03T20:30:12.021Z,13.45
2018-02-03T20:32:39.579Z,13.75
2018-02-03T20:35:07.081Z,12.43
2018-02-03T20:37:34.652Z,12.55
2018-02-03T20:40:02.165Z,12.18
2018-02-03T20:42:29.680Z,12.45
2018-02-03T20:44:58.940Z,11.60
2018-02-03T20:47:26.435Z,12.80
2018-02-03T20:49:54.799Z,12.48
2018-02-03T20:52:22.287Z,11.90
2018-02-03T20:54:50.593Z,11.25
2018-02-03T20:57:18.086Z,12.15
2018-02-03T20:59:45.573Z,11.52
2018-02-03T21:02:13.083Z,17.30
2018-02-03T21:04:40.587Z,13.23
2018-02-03T21:07:08.180Z,12.75
2018-02-03T21:09:35.682Z,12.40
2018-02-03T21:12:03.176Z,13.52
2018-02-03T21:14:31.451Z,12.75
2018-02-03T21:16:59.721Z,12.48
2018-02-03T21:19:27.251Z,12.37
2018-02-03T21:21:54.747Z,11.18
2018-02-03T21:24:23.013Z,11.00
2018-02-03T21:26:51.314Z,11.15
2018-02-03T21:29:20.124Z,11.73
2018-02-03T21:31:47.648Z,11.68
2018-02-03T21:34:15.895Z,11.55
2018-02-03T21:36:43.388Z,11.90
2018-02-03T21:39:11.740Z,11.40
2018-02-03T21:41:39.228Z,11.57
2018-02-03T21:44:07.521Z,12.05
2018-02-03T21:46:35.007Z,12.20
2018-02-03T21:49:02.494Z,11.60
2018-02-03T21:51:31.539Z,12.90
2018-02-03T21:53:59.063Z,11.98
2018-02-03T21:56:27.342Z,12.82
2018-02-03T21:58:55.603Z,12.77
2018-02-03T22:01:24.602Z,11.63
2018-02-03T22:03:52.876Z,11.60
2018-02-03T22:06:20.396Z,13.80
2018-02-03T22:08:47.903Z,13.00
2018-02-03T22:11:16.187Z,12.30
2018-02-03T22:13:44.536Z,11.80
2018-02-03T22:16:12.084Z,12.40
2018-02-03T22:18:39.920Z,12.98
2018-02-03T22:21:07.482Z,12.23
2018-02-03T22:23:34.984Z,12.37
2018-02-03T22:26:03.405Z,12.60
2018-02-03T22:28:30.907Z,12.25
2018-02-03T22:30:58.402Z,12.32
2018-02-03T22:33:26.708Z,12.82
2018-02-03T22:35:54.830Z,12.77
2018-02-03T22:38:22.317Z,12.68
2018-02-03T22:40:50.663Z,13.23
2018-02-03T22:43:18.157Z,13.48
2018-02-03T22:45:46.446Z,12.85
2018-02-03T22:48:14.019Z,13.23
2018-02-03T22:50:41.526Z,13.32
2018-02-03T22:53:09.031Z,12.75
2018-02-03T22:55:36.528Z,12.23
2018-02-03T22:58:04.055Z,12.32
2018-02-03T23:00:35.653Z,12.45
2018-02-03T23:02:59.316Z,11.73
2018-02-03T23:05:26.888Z,12.57
2018-02-03T23:07:56.211Z,12.05
2018-02-03T23:10:24.550Z,12.18
2018-02-03T23:12:52.236Z,11.82
2018-02-03T23:15:20.615Z,12.90
2018-02-03T23:17:48.137Z,12.25
2018-02-03T23:20:15.656Z,12.20
2018-02-03T23:22:43.163Z,12.77
2018-02-03T23:25:10.703Z,12.23
2018-02-03T23:27:38.190Z,12.68
2018-02-03T23:30:05.685Z,13.35
2018-02-03T23:32:33.954Z,12.50
2018-02-03T23:35:02.199Z,12.45
2018-02-03T23:37:29.695Z,12.88
2018-02-03T23:39:57.992Z,12.77
2018-02-03T23:42:25.485Z,13.18
2018-02-03T23:44:53.012Z,13.30
2018-02-03T23:47:20.496Z,12.85
2018-02-03T23:49:48.003Z,13.93
2018-02-03T23:52:16.331Z,12.65
2018-02-03T23:54:43.816Z,12.50
2018-02-03T23:57:11.416Z,14.02
2018-02-03T23:59:38.908Z,13.60
